Nashville, NC

10:18 AM EDT on October 21, 2014 (GMT -0400)
Nashville - Birchwood | Change Station
CLOSE
Current Station
Personal Weather Station
Location: Nashville, NC
Elevation: 223 ft
Nearby Weather Stations

Elev 223 ft 35.96 °N, 77.94 °W | Updated 41 seconds ago

Partly Cloudy
Partly Cloudy
63.1 °F
Feels Like 63.1 °F
N
0.9
Wind Variable Wind from West
Gusts 2.0 mph

Today
High -- | Low -- °F
--% Chance of Precip.
Yesterday
High -- | Low -- °F
Precip. -- in
7:23 AM 6:28 PM
Waning Crescent, 5% visible
Pressure 29.93 in
Visibility 10.0 miles
Clouds Few 8500 ft
Dew Point 56 °F
Humidity 78%
Rainfall 0.00 in
Snow Depth Not available.
UV 2 out of 12
Pollen 2.00 out of 12
PM2.5 Good
Flu Activity Sporadic
METAR KRWI 211353Z AUTO 24004KT 10SM FEW085 18/12 A2993 RMK AO2 SLP135 T01780122

More Conditions Fewer Conditions

Pressure 29.93 in
Visibility 10.0 miles
Clouds Few 8500 ft
Dew Point 56 °F
Humidity 78%
Rainfall 0.00 in
Snow Depth Not available.
UV 2 out of 12
Pollen 2.00 out of 12
PM2.5 Good
Flu Activity Sporadic
METAR KRWI 211353Z AUTO 24004KT 10SM FEW085 18/12 A2993 RMK AO2 SLP135 T01780122

More Conditions Fewer Conditions

10-Day Weather Forecast

Almanac

Astronomy

Oct. 21, 2014 Rise Set
Actual Time 7:23 AM EDT 6:28 PM EDT
Civil Twilight 6:57 AM EDT 6:54 PM EDT
Nautical Twilight 6:28 AM EDT 7:24 PM EDT
Astronomical Twilight 5:58 AM EDT 7:53 PM EDT
Moon 5:10 AM EDT 5:18 PM EDT
Length of Visible Light 11h 56m
Length of Day
11h 04m
Tomorrow will be 2m 8s shorter.
Waning Crescent, 5% of the Moon is Illuminated
Today
Waning Crescent
Oct 23
New
Oct 30
First Quarter
Nov 6
Full
Nov 14
Last Quarter

Today's Extremes

State Highs State Lows

Community

WunderPhotos

Upload Photos

1,763,671 photos uploaded!

Nearby

Air Quality

  Air Quality AQ Index Pollutant
Yesterday Good
PM2.5
Current Good
PM2.5
Tuesday Good
OZONE
Tuesday Good
PM2.5
Wednesday Good
OZONE
Wednesday Good
PM2.5
Thursday Good
OZONE
Thursday Good
PM2.5

Snow Depth

Station Depth Elevation
No new snow has been reported.

Earthquake Activity

City Distance Mag. Time & Date
No recent earthquake activity has been reported nearby.
Minimum magnitude displayed is 2.5.

Coastal Water Temperatures

Place Temperature
No Stations Reporting

Nearby Weather Stations